sensor_id;sensor_type;location;lat;lon;timestamp;temperature;humidity
24426;DHT22;12611;44.446;26.000;2022-11-20T00:01:36;11.20;94.20
24426;DHT22;12611;44.446;26.000;2022-11-20T00:04:04;11.20;94.30
24426;DHT22;12611;44.446;26.000;2022-11-20T00:06:34;11.10;94.30
24426;DHT22;12611;44.446;26.000;2022-11-20T00:09:03;11.10;94.40
24426;DHT22;12611;44.446;26.000;2022-11-20T00:11:32;11.10;94.40
24426;DHT22;12611;44.446;26.000;2022-11-20T00:14:01;11.00;94.40
24426;DHT22;12611;44.446;26.000;2022-11-20T00:16:32;11.00;94.50
24426;DHT22;12611;44.446;26.000;2022-11-20T00:19:01;10.90;94.50
24426;DHT22;12611;44.446;26.000;2022-11-20T00:21:29;10.90;94.50
24426;DHT22;12611;44.446;26.000;2022-11-20T00:23:59;10.90;94.50
24426;DHT22;12611;44.446;26.000;2022-11-20T00:26:28;10.90;94.50
24426;DHT22;12611;44.446;26.000;2022-11-20T00:28:58;10.90;94.40
24426;DHT22;12611;44.446;26.000;2022-11-20T00:31:27;10.90;94.60
24426;DHT22;12611;44.446;26.000;2022-11-20T00:33:56;10.80;94.60
24426;DHT22;12611;44.446;26.000;2022-11-20T00:36:26;10.80;94.60
24426;DHT22;12611;44.446;26.000;2022-11-20T00:38:56;10.80;94.60
24426;DHT22;12611;44.446;26.000;2022-11-20T00:41:27;10.80;94.70
24426;DHT22;12611;44.446;26.000;2022-11-20T00:43:56;10.80;94.70
24426;DHT22;12611;44.446;26.000;2022-11-20T00:46:25;10.80;94.70
24426;DHT22;12611;44.446;26.000;2022-11-20T00:48:54;10.80;94.70
24426;DHT22;12611;44.446;26.000;2022-11-20T00:51:24;10.70;94.80
24426;DHT22;12611;44.446;26.000;2022-11-20T00:53:55;10.70;94.80
24426;DHT22;12611;44.446;26.000;2022-11-20T00:56:25;10.70;94.80
24426;DHT22;12611;44.446;26.000;2022-11-20T00:58:53;10.60;95.30
24426;DHT22;12611;44.446;26.000;2022-11-20T01:01:24;10.60;95.10
24426;DHT22;12611;44.446;26.000;2022-11-20T01:03:54;10.60;95.00
24426;DHT22;12611;44.446;26.000;2022-11-20T01:06:25;10.60;95.20
24426;DHT22;12611;44.446;26.000;2022-11-20T01:08:55;10.60;95.20
24426;DHT22;12611;44.446;26.000;2022-11-20T01:11:26;10.50;95.20
24426;DHT22;12611;44.446;26.000;2022-11-20T01:13:58;10.50;95.30
24426;DHT22;12611;44.446;26.000;2022-11-20T01:16:29;10.40;95.40
24426;DHT22;12611;44.446;26.000;2022-11-20T01:18:58;10.40;95.50
24426;DHT22;12611;44.446;26.000;2022-11-20T01:21:30;10.40;95.50
24426;DHT22;12611;44.446;26.000;2022-11-20T01:23:59;10.30;95.70
24426;DHT22;12611;44.446;26.000;2022-11-20T01:26:31;10.30;95.70
24426;DHT22;12611;44.446;26.000;2022-11-20T01:29:00;10.20;95.80
24426;DHT22;12611;44.446;26.000;2022-11-20T01:31:30;10.20;95.80
24426;DHT22;12611;44.446;26.000;2022-11-20T01:34:00;10.20;95.90
24426;DHT22;12611;44.446;26.000;2022-11-20T01:36:30;10.10;95.90
24426;DHT22;12611;44.446;26.000;2022-11-20T01:39:02;10.10;96.00
24426;DHT22;12611;44.446;26.000;2022-11-20T01:41:33;10.10;96.20
24426;DHT22;12611;44.446;26.000;2022-11-20T01:44:21;10.00;96.40
24426;DHT22;12611;44.446;26.000;2022-11-20T01:46:55;10.00;96.40
24426;DHT22;12611;44.446;26.000;2022-11-20T01:49:31;10.00;96.50
24426;DHT22;12611;44.446;26.000;2022-11-20T01:52:05;10.00;96.70
24426;DHT22;12611;44.446;26.000;2022-11-20T01:54:38;10.00;96.80
24426;DHT22;12611;44.446;26.000;2022-11-20T01:57:31;9.90;96.90
24426;DHT22;12611;44.446;26.000;2022-11-20T02:00:12;10.00;97.00
24426;DHT22;12611;44.446;26.000;2022-11-20T02:02:45;9.90;97.10
24426;DHT22;12611;44.446;26.000;2022-11-20T02:05:20;10.00;97.10
24426;DHT22;12611;44.446;26.000;2022-11-20T02:07:50;10.00;97.20
24426;DHT22;12611;44.446;26.000;2022-11-20T02:10:20;10.00;97.10
24426;DHT22;12611;44.446;26.000;2022-11-20T02:12:52;10.00;97.20
24426;DHT22;12611;44.446;26.000;2022-11-20T02:15:38;10.10;97.50
24426;DHT22;12611;44.446;26.000;2022-11-20T02:18:08;10.10;97.10
24426;DHT22;12611;44.446;26.000;2022-11-20T02:20:37;10.20;97.20
24426;DHT22;12611;44.446;26.000;2022-11-20T02:23:16;10.20;97.00
24426;DHT22;12611;44.446;26.000;2022-11-20T02:25:49;10.20;96.90
24426;DHT22;12611;44.446;26.000;2022-11-20T02:28:18;10.20;96.90
24426;DHT22;12611;44.446;26.000;2022-11-20T02:30:46;10.20;97.00
24426;DHT22;12611;44.446;26.000;2022-11-20T02:33:14;10.20;96.90
24426;DHT22;12611;44.446;26.000;2022-11-20T02:35:44;10.20;96.90
24426;DHT22;12611;44.446;26.000;2022-11-20T02:38:14;10.20;96.90
24426;DHT22;12611;44.446;26.000;2022-11-20T02:40:42;10.20;97.00
24426;DHT22;12611;44.446;26.000;2022-11-20T02:43:12;10.20;97.00
24426;DHT22;12611;44.446;26.000;2022-11-20T02:45:40;10.20;97.00
24426;DHT22;12611;44.446;26.000;2022-11-20T02:48:08;10.20;97.00
24426;DHT22;12611;44.446;26.000;2022-11-20T02:50:38;10.20;97.00
24426;DHT22;12611;44.446;26.000;2022-11-20T02:53:07;10.20;97.00
24426;DHT22;12611;44.446;26.000;2022-11-20T02:55:47;10.20;97.10
24426;DHT22;12611;44.446;26.000;2022-11-20T02:58:46;10.20;96.90
24426;DHT22;12611;44.446;26.000;2022-11-20T03:01:16;10.20;96.80
24426;DHT22;12611;44.446;26.000;2022-11-20T03:03:45;10.10;96.80
24426;DHT22;12611;44.446;26.000;2022-11-20T03:06:15;10.10;96.80
24426;DHT22;12611;44.446;26.000;2022-11-20T03:08:43;10.00;96.90
24426;DHT22;12611;44.446;26.000;2022-11-20T03:11:12;10.10;97.00
24426;DHT22;12611;44.446;26.000;2022-11-20T03:13:41;10.10;97.00
24426;DHT22;12611;44.446;26.000;2022-11-20T03:16:11;10.10;97.00
24426;DHT22;12611;44.446;26.000;2022-11-20T03:18:40;10.10;96.90
24426;DHT22;12611;44.446;26.000;2022-11-20T03:21:10;10.10;96.90
24426;DHT22;12611;44.446;26.000;2022-11-20T03:23:39;10.00;97.00
24426;DHT22;12611;44.446;26.000;2022-11-20T03:26:09;10.00;97.00
24426;DHT22;12611;44.446;26.000;2022-11-20T03:28:38;10.00;97.10
24426;DHT22;12611;44.446;26.000;2022-11-20T03:31:10;10.00;97.00
24426;DHT22;12611;44.446;26.000;2022-11-20T03:33:39;10.00;97.10
24426;DHT22;12611;44.446;26.000;2022-11-20T03:36:10;10.00;97.10
24426;DHT22;12611;44.446;26.000;2022-11-20T03:38:38;9.90;97.10
24426;DHT22;12611;44.446;26.000;2022-11-20T03:41:08;9.90;97.20
24426;DHT22;12611;44.446;26.000;2022-11-20T03:43:37;10.00;97.30
24426;DHT22;12611;44.446;26.000;2022-11-20T03:46:06;10.00;97.40
24426;DHT22;12611;44.446;26.000;2022-11-20T03:48:36;10.00;97.40
24426;DHT22;12611;44.446;26.000;2022-11-20T03:51:09;10.00;97.50
24426;DHT22;12611;44.446;26.000;2022-11-20T03:53:37;10.10;97.40
24426;DHT22;12611;44.446;26.000;2022-11-20T03:56:13;10.10;97.40
24426;DHT22;12611;44.446;26.000;2022-11-20T03:58:52;10.20;97.40
24426;DHT22;12611;44.446;26.000;2022-11-20T04:01:27;10.30;97.30
24426;DHT22;12611;44.446;26.000;2022-11-20T04:03:57;10.40;97.20
24426;DHT22;12611;44.446;26.000;2022-11-20T04:06:27;10.40;97.10
24426;DHT22;12611;44.446;26.000;2022-11-20T04:08:57;10.50;97.00
24426;DHT22;12611;44.446;26.000;2022-11-20T04:11:28;10.50;96.80
24426;DHT22;12611;44.446;26.000;2022-11-20T04:13:58;10.50;96.70
24426;DHT22;12611;44.446;26.000;2022-11-20T04:16:29;10.50;96.70
24426;DHT22;12611;44.446;26.000;2022-11-20T04:19:00;10.60;96.70
24426;DHT22;12611;44.446;26.000;2022-11-20T04:21:29;10.60;96.60
24426;DHT22;12611;44.446;26.000;2022-11-20T04:23:58;10.70;96.50
24426;DHT22;12611;44.446;26.000;2022-11-20T04:26:28;10.70;96.50
24426;DHT22;12611;44.446;26.000;2022-11-20T04:28:57;10.70;96.50
24426;DHT22;12611;44.446;26.000;2022-11-20T04:31:27;10.70;96.50
24426;DHT22;12611;44.446;26.000;2022-11-20T04:33:58;10.80;96.50
24426;DHT22;12611;44.446;26.000;2022-11-20T04:36:29;10.80;96.40
24426;DHT22;12611;44.446;26.000;2022-11-20T04:39:00;10.80;96.40
24426;DHT22;12611;44.446;26.000;2022-11-20T04:41:30;10.90;96.50
24426;DHT22;12611;44.446;26.000;2022-11-20T04:43:59;10.90;96.30
24426;DHT22;12611;44.446;26.000;2022-11-20T04:46:30;10.90;96.30
24426;DHT22;12611;44.446;26.000;2022-11-20T04:48:59;10.90;96.20
24426;DHT22;12611;44.446;26.000;2022-11-20T04:51:29;10.90;96.20
24426;DHT22;12611;44.446;26.000;2022-11-20T04:53:57;10.90;96.30
24426;DHT22;12611;44.446;26.000;2022-11-20T04:56:25;11.00;96.30
24426;DHT22;12611;44.446;26.000;2022-11-20T04:58:54;11.00;96.20
24426;DHT22;12611;44.446;26.000;2022-11-20T05:01:23;11.00;96.10
24426;DHT22;12611;44.446;26.000;2022-11-20T05:03:52;11.00;96.00
24426;DHT22;12611;44.446;26.000;2022-11-20T05:06:21;11.00;95.90
24426;DHT22;12611;44.446;26.000;2022-11-20T05:08:51;10.90;95.70
24426;DHT22;12611;44.446;26.000;2022-11-20T05:11:20;10.80;95.70
24426;DHT22;12611;44.446;26.000;2022-11-20T05:13:49;10.80;95.80
24426;DHT22;12611;44.446;26.000;2022-11-20T05:16:19;10.90;95.90
24426;DHT22;12611;44.446;26.000;2022-11-20T05:18:52;10.90;95.80
24426;DHT22;12611;44.446;26.000;2022-11-20T05:21:21;11.00;95.90
24426;DHT22;12611;44.446;26.000;2022-11-20T05:23:50;11.00;95.80
24426;DHT22;12611;44.446;26.000;2022-11-20T05:26:21;11.00;95.70
24426;DHT22;12611;44.446;26.000;2022-11-20T05:28:50;11.00;95.70
24426;DHT22;12611;44.446;26.000;2022-11-20T05:31:20;11.00;95.60
24426;DHT22;12611;44.446;26.000;2022-11-20T05:33:54;11.00;95.80
24426;DHT22;12611;44.446;26.000;2022-11-20T05:36:23;11.00;95.80
24426;DHT22;12611;44.446;26.000;2022-11-20T05:38:53;11.00;95.80
24426;DHT22;12611;44.446;26.000;2022-11-20T05:41:27;11.00;95.80
24426;DHT22;12611;44.446;26.000;2022-11-20T05:43:56;11.10;95.80
24426;DHT22;12611;44.446;26.000;2022-11-20T05:46:25;11.10;95.80
24426;DHT22;12611;44.446;26.000;2022-11-20T05:48:56;11.10;95.80
24426;DHT22;12611;44.446;26.000;2022-11-20T05:51:27;11.10;95.80
24426;DHT22;12611;44.446;26.000;2022-11-20T05:53:57;11.10;95.80
24426;DHT22;12611;44.446;26.000;2022-11-20T05:56:29;11.10;95.80
24426;DHT22;12611;44.446;26.000;2022-11-20T05:59:01;11.10;95.80
24426;DHT22;12611;44.446;26.000;2022-11-20T06:01:30;11.10;95.80
24426;DHT22;12611;44.446;26.000;2022-11-20T06:03:58;11.10;95.80
24426;DHT22;12611;44.446;26.000;2022-11-20T06:06:26;11.10;95.70
24426;DHT22;12611;44.446;26.000;2022-11-20T06:08:57;11.10;95.80
24426;DHT22;12611;44.446;26.000;2022-11-20T06:11:25;11.10;95.80
24426;DHT22;12611;44.446;26.000;2022-11-20T06:13:59;11.00;95.80
24426;DHT22;12611;44.446;26.000;2022-11-20T06:16:28;11.00;95.90
24426;DHT22;12611;44.446;26.000;2022-11-20T06:18:56;11.00;95.90
24426;DHT22;12611;44.446;26.000;2022-11-20T06:21:24;11.10;95.90
24426;DHT22;12611;44.446;26.000;2022-11-20T06:23:53;11.10;95.90
24426;DHT22;12611;44.446;26.000;2022-11-20T06:26:27;11.10;95.80
24426;DHT22;12611;44.446;26.000;2022-11-20T06:28:55;11.10;95.80
24426;DHT22;12611;44.446;26.000;2022-11-20T06:31:25;11.10;95.90
24426;DHT22;12611;44.446;26.000;2022-11-20T06:33:54;11.10;95.90
24426;DHT22;12611;44.446;26.000;2022-11-20T06:36:23;11.10;95.90
24426;DHT22;12611;44.446;26.000;2022-11-20T06:38:51;11.10;95.90
24426;DHT22;12611;44.446;26.000;2022-11-20T06:41:22;11.20;95.80
24426;DHT22;12611;44.446;26.000;2022-11-20T06:43:50;11.20;95.80
24426;DHT22;12611;44.446;26.000;2022-11-20T06:46:19;11.20;95.70
24426;DHT22;12611;44.446;26.000;2022-11-20T06:48:48;11.20;95.80
24426;DHT22;12611;44.446;26.000;2022-11-20T06:51:17;11.30;95.80
24426;DHT22;12611;44.446;26.000;2022-11-20T06:53:45;11.30;95.80
24426;DHT22;12611;44.446;26.000;2022-11-20T06:56:14;11.30;95.80
24426;DHT22;12611;44.446;26.000;2022-11-20T06:58:45;11.30;95.90
24426;DHT22;12611;44.446;26.000;2022-11-20T07:01:16;11.40;96.00
24426;DHT22;12611;44.446;26.000;2022-11-20T07:03:45;11.50;96.10
24426;DHT22;12611;44.446;26.000;2022-11-20T07:06:19;11.50;96.10
24426;DHT22;12611;44.446;26.000;2022-11-20T07:08:50;11.60;96.10
24426;DHT22;12611;44.446;26.000;2022-11-20T07:11:19;11.70;96.20
24426;DHT22;12611;44.446;26.000;2022-11-20T07:13:48;11.80;96.10
24426;DHT22;12611;44.446;26.000;2022-11-20T07:16:17;11.90;96.30
24426;DHT22;12611;44.446;26.000;2022-11-20T07:18:45;12.00;96.30
24426;DHT22;12611;44.446;26.000;2022-11-20T07:21:17;12.00;96.10
24426;DHT22;12611;44.446;26.000;2022-11-20T07:23:45;12.00;95.90
24426;DHT22;12611;44.446;26.000;2022-11-20T07:26:15;12.00;95.70
24426;DHT22;12611;44.446;26.000;2022-11-20T07:28:44;12.10;95.80
24426;DHT22;12611;44.446;26.000;2022-11-20T07:31:14;12.10;95.80
24426;DHT22;12611;44.446;26.000;2022-11-20T07:33:45;12.20;95.80
24426;DHT22;12611;44.446;26.000;2022-11-20T07:36:14;12.30;95.90
24426;DHT22;12611;44.446;26.000;2022-11-20T07:38:42;12.40;95.80
24426;DHT22;12611;44.446;26.000;2022-11-20T07:41:10;12.50;95.90
24426;DHT22;12611;44.446;26.000;2022-11-20T07:43:38;12.50;95.90
24426;DHT22;12611;44.446;26.000;2022-11-20T07:46:07;12.50;95.80
24426;DHT22;12611;44.446;26.000;2022-11-20T07:48:37;12.50;95.70
24426;DHT22;12611;44.446;26.000;2022-11-20T07:51:06;12.60;95.40
24426;DHT22;12611;44.446;26.000;2022-11-20T07:53:34;12.60;95.30
24426;DHT22;12611;44.446;26.000;2022-11-20T07:56:03;12.60;95.30
24426;DHT22;12611;44.446;26.000;2022-11-20T07:58:32;12.70;95.20
24426;DHT22;12611;44.446;26.000;2022-11-20T08:01:05;12.70;95.60
24426;DHT22;12611;44.446;26.000;2022-11-20T08:03:33;12.70;95.30
24426;DHT22;12611;44.446;26.000;2022-11-20T08:06:06;12.70;95.20
24426;DHT22;12611;44.446;26.000;2022-11-20T08:08:35;12.70;95.20
24426;DHT22;12611;44.446;26.000;2022-11-20T08:11:09;12.80;95.10
24426;DHT22;12611;44.446;26.000;2022-11-20T08:13:54;12.80;95.10
24426;DHT22;12611;44.446;26.000;2022-11-20T08:16:42;12.90;95.10
24426;DHT22;12611;44.446;26.000;2022-11-20T08:19:11;12.90;95.00
24426;DHT22;12611;44.446;26.000;2022-11-20T08:21:41;13.00;95.10
24426;DHT22;12611;44.446;26.000;2022-11-20T08:24:10;13.00;95.10
24426;DHT22;12611;44.446;26.000;2022-11-20T08:26:40;13.00;94.90
24426;DHT22;12611;44.446;26.000;2022-11-20T08:29:08;13.00;94.90
24426;DHT22;12611;44.446;26.000;2022-11-20T08:31:36;13.10;94.70
24426;DHT22;12611;44.446;26.000;2022-11-20T08:34:04;13.10;94.60
24426;DHT22;12611;44.446;26.000;2022-11-20T08:36:39;13.10;94.60
24426;DHT22;12611;44.446;26.000;2022-11-20T08:39:11;13.10;94.60
24426;DHT22;12611;44.446;26.000;2022-11-20T08:41:40;13.20;94.70
24426;DHT22;12611;44.446;26.000;2022-11-20T08:44:08;13.20;94.70
24426;DHT22;12611;44.446;26.000;2022-11-20T08:46:37;13.20;94.60
24426;DHT22;12611;44.446;26.000;2022-11-20T08:49:09;13.30;94.60
24426;DHT22;12611;44.446;26.000;2022-11-20T08:51:38;13.30;94.50
24426;DHT22;12611;44.446;26.000;2022-11-20T08:54:08;13.30;94.40
24426;DHT22;12611;44.446;26.000;2022-11-20T08:56:37;13.30;94.40
24426;DHT22;12611;44.446;26.000;2022-11-20T08:59:07;13.40;94.40
24426;DHT22;12611;44.446;26.000;2022-11-20T09:01:55;13.40;94.40
24426;DHT22;12611;44.446;26.000;2022-11-20T09:04:25;13.40;94.40
24426;DHT22;12611;44.446;26.000;2022-11-20T09:06:53;13.50;94.30
24426;DHT22;12611;44.446;26.000;2022-11-20T09:09:23;13.50;94.30
24426;DHT22;12611;44.446;26.000;2022-11-20T09:11:52;13.50;94.10
24426;DHT22;12611;44.446;26.000;2022-11-20T09:14:20;13.50;94.20
24426;DHT22;12611;44.446;26.000;2022-11-20T09:16:51;13.50;94.10
24426;DHT22;12611;44.446;26.000;2022-11-20T09:19:19;13.50;94.00
24426;DHT22;12611;44.446;26.000;2022-11-20T09:22:03;13.50;94.00
24426;DHT22;12611;44.446;26.000;2022-11-20T09:24:33;13.50;94.00
24426;DHT22;12611;44.446;26.000;2022-11-20T09:27:03;13.50;94.00
24426;DHT22;12611;44.446;26.000;2022-11-20T09:29:31;13.50;94.00
24426;DHT22;12611;44.446;26.000;2022-11-20T09:32:00;13.50;94.00
24426;DHT22;12611;44.446;26.000;2022-11-20T09:34:29;13.50;94.00
24426;DHT22;12611;44.446;26.000;2022-11-20T09:36:58;13.50;94.00
24426;DHT22;12611;44.446;26.000;2022-11-20T09:39:33;13.50;94.00
24426;DHT22;12611;44.446;26.000;2022-11-20T09:42:28;13.50;94.00
24426;DHT22;12611;44.446;26.000;2022-11-20T09:45:12;13.60;93.90
24426;DHT22;12611;44.446;26.000;2022-11-20T09:47:53;13.60;93.90
24426;DHT22;12611;44.446;26.000;2022-11-20T09:50:31;13.60;93.90
24426;DHT22;12611;44.446;26.000;2022-11-20T09:53:11;13.60;93.90
24426;DHT22;12611;44.446;26.000;2022-11-20T09:55:42;13.60;93.80
24426;DHT22;12611;44.446;26.000;2022-11-20T09:58:19;13.60;93.80
24426;DHT22;12611;44.446;26.000;2022-11-20T10:00:51;13.60;93.60
24426;DHT22;12611;44.446;26.000;2022-11-20T10:03:31;13.60;93.60
24426;DHT22;12611;44.446;26.000;2022-11-20T10:06:05;13.60;93.60
24426;DHT22;12611;44.446;26.000;2022-11-20T10:08:41;13.60;93.70
24426;DHT22;12611;44.446;26.000;2022-11-20T10:11:15;13.60;93.70
24426;DHT22;12611;44.446;26.000;2022-11-20T10:13:52;13.60;93.60
24426;DHT22;12611;44.446;26.000;2022-11-20T10:16:33;13.60;93.60
24426;DHT22;12611;44.446;26.000;2022-11-20T10:19:21;13.60;93.50
24426;DHT22;12611;44.446;26.000;2022-11-20T10:21:58;13.70;93.50
24426;DHT22;12611;44.446;26.000;2022-11-20T10:24:52;13.60;93.50
24426;DHT22;12611;44.446;26.000;2022-11-20T10:27:40;13.60;93.50
24426;DHT22;12611;44.446;26.000;2022-11-20T10:30:12;13.60;93.50
24426;DHT22;12611;44.446;26.000;2022-11-20T10:32:42;13.60;93.50
24426;DHT22;12611;44.446;26.000;2022-11-20T10:35:20;13.60;93.50
24426;DHT22;12611;44.446;26.000;2022-11-20T10:37:53;13.60;93.50
24426;DHT22;12611;44.446;26.000;2022-11-20T10:40:29;13.60;93.50
24426;DHT22;12611;44.446;26.000;2022-11-20T10:43:03;13.60;93.60
24426;DHT22;12611;44.446;26.000;2022-11-20T10:45:49;13.60;93.70
24426;DHT22;12611;44.446;26.000;2022-11-20T10:48:22;13.60;93.70
24426;DHT22;12611;44.446;26.000;2022-11-20T10:50:59;13.60;93.70
24426;DHT22;12611;44.446;26.000;2022-11-20T10:53:45;13.60;93.70
24426;DHT22;12611;44.446;26.000;2022-11-20T10:56:19;13.50;93.70
24426;DHT22;12611;44.446;26.000;2022-11-20T10:59:00;13.50;93.70
24426;DHT22;12611;44.446;26.000;2022-11-20T11:01:30;13.50;93.70
24426;DHT22;12611;44.446;26.000;2022-11-20T11:03:59;13.50;93.80
24426;DHT22;12611;44.446;26.000;2022-11-20T11:06:33;13.50;93.80
24426;DHT22;12611;44.446;26.000;2022-11-20T11:09:06;13.50;93.90
24426;DHT22;12611;44.446;26.000;2022-11-20T11:11:38;13.50;93.90
24426;DHT22;12611;44.446;26.000;2022-11-20T11:14:10;13.50;94.00
24426;DHT22;12611;44.446;26.000;2022-11-20T11:16:49;13.50;94.00
24426;DHT22;12611;44.446;26.000;2022-11-20T11:19:18;13.50;94.00
24426;DHT22;12611;44.446;26.000;2022-11-20T11:21:47;13.50;94.00
24426;DHT22;12611;44.446;26.000;2022-11-20T11:24:23;13.50;94.00
24426;DHT22;12611;44.446;26.000;2022-11-20T11:27:12;13.50;94.20
24426;DHT22;12611;44.446;26.000;2022-11-20T11:29:45;13.40;94.20
24426;DHT22;12611;44.446;26.000;2022-11-20T11:32:18;13.40;94.20
24426;DHT22;12611;44.446;26.000;2022-11-20T11:34:59;13.40;94.30
24426;DHT22;12611;44.446;26.000;2022-11-20T11:37:32;13.40;94.40
24426;DHT22;12611;44.446;26.000;2022-11-20T11:40:03;13.40;94.50
24426;DHT22;12611;44.446;26.000;2022-11-20T11:42:54;13.40;94.60
24426;DHT22;12611;44.446;26.000;2022-11-20T11:45:26;13.30;94.60
24426;DHT22;12611;44.446;26.000;2022-11-20T11:47:55;13.30;94.70
24426;DHT22;12611;44.446;26.000;2022-11-20T11:50:29;13.30;94.80
24426;DHT22;12611;44.446;26.000;2022-11-20T11:53:05;13.30;94.80
24426;DHT22;12611;44.446;26.000;2022-11-20T11:55:39;13.30;94.80
24426;DHT22;12611;44.446;26.000;2022-11-20T11:58:20;13.30;94.90
24426;DHT22;12611;44.446;26.000;2022-11-20T12:00:58;13.30;94.90
24426;DHT22;12611;44.446;26.000;2022-11-20T12:03:34;13.30;94.90
24426;DHT22;12611;44.446;26.000;2022-11-20T12:06:06;13.40;95.00
24426;DHT22;12611;44.446;26.000;2022-11-20T12:08:43;13.40;95.00
24426;DHT22;12611;44.446;26.000;2022-11-20T12:11:16;13.40;95.10
24426;DHT22;12611;44.446;26.000;2022-11-20T12:13:50;13.40;94.90
24426;DHT22;12611;44.446;26.000;2022-11-20T12:16:23;13.40;94.90
24426;DHT22;12611;44.446;26.000;2022-11-20T12:18:52;13.50;94.90
24426;DHT22;12611;44.446;26.000;2022-11-20T12:21:28;13.50;94.90
24426;DHT22;12611;44.446;26.000;2022-11-20T12:24:14;13.50;95.00
24426;DHT22;12611;44.446;26.000;2022-11-20T12:26:57;13.50;95.00
24426;DHT22;12611;44.446;26.000;2022-11-20T12:29:38;13.50;94.90
24426;DHT22;12611;44.446;26.000;2022-11-20T12:32:32;13.50;94.90
24426;DHT22;12611;44.446;26.000;2022-11-20T12:35:08;13.60;95.00
24426;DHT22;12611;44.446;26.000;2022-11-20T12:37:45;13.60;94.90
24426;DHT22;12611;44.446;26.000;2022-11-20T12:40:26;13.60;94.90
24426;DHT22;12611;44.446;26.000;2022-11-20T12:43:06;13.70;95.00
24426;DHT22;12611;44.446;26.000;2022-11-20T12:46:15;13.70;95.00
24426;DHT22;12611;44.446;26.000;2022-11-20T12:49:07;13.70;94.80
24426;DHT22;12611;44.446;26.000;2022-11-20T12:51:57;13.80;94.80
24426;DHT22;12611;44.446;26.000;2022-11-20T12:57:29;13.80;94.70
24426;DHT22;12611;44.446;26.000;2022-11-20T13:00:10;13.80;94.50
24426;DHT22;12611;44.446;26.000;2022-11-20T13:03:13;13.80;94.50
24426;DHT22;12611;44.446;26.000;2022-11-20T13:05:55;13.80;94.50
24426;DHT22;12611;44.446;26.000;2022-11-20T13:08:28;13.80;94.50
24426;DHT22;12611;44.446;26.000;2022-11-20T13:11:02;13.90;94.60
24426;DHT22;12611;44.446;26.000;2022-11-20T13:13:40;13.90;94.50
24426;DHT22;12611;44.446;26.000;2022-11-20T13:16:15;13.90;94.70
24426;DHT22;12611;44.446;26.000;2022-11-20T13:18:45;13.90;94.50
24426;DHT22;12611;44.446;26.000;2022-11-20T13:21:20;13.90;94.50
24426;DHT22;12611;44.446;26.000;2022-11-20T13:23:49;13.90;94.50
24426;DHT22;12611;44.446;26.000;2022-11-20T13:26:20;13.80;94.50
24426;DHT22;12611;44.446;26.000;2022-11-20T13:29:01;13.90;94.50
24426;DHT22;12611;44.446;26.000;2022-11-20T13:31:32;13.80;94.50
24426;DHT22;12611;44.446;26.000;2022-11-20T13:34:04;13.90;94.50
24426;DHT22;12611;44.446;26.000;2022-11-20T13:36:34;13.90;94.70
24426;DHT22;12611;44.446;26.000;2022-11-20T13:39:03;13.90;94.70
24426;DHT22;12611;44.446;26.000;2022-11-20T13:41:33;13.80;94.70
24426;DHT22;12611;44.446;26.000;2022-11-20T13:44:13;13.90;94.70
24426;DHT22;12611;44.446;26.000;2022-11-20T13:46:44;13.80;94.60
24426;DHT22;12611;44.446;26.000;2022-11-20T13:49:18;13.80;94.60
24426;DHT22;12611;44.446;26.000;2022-11-20T13:51:49;13.90;94.70
24426;DHT22;12611;44.446;26.000;2022-11-20T13:57:56;13.90;94.60
24426;DHT22;12611;44.446;26.000;2022-11-20T14:00:26;13.90;94.60
24426;DHT22;12611;44.446;26.000;2022-11-20T14:03:06;13.80;94.50
24426;DHT22;12611;44.446;26.000;2022-11-20T14:05:39;13.80;94.60
24426;DHT22;12611;44.446;26.000;2022-11-20T14:08:23;13.80;94.60
24426;DHT22;12611;44.446;26.000;2022-11-20T14:13:57;13.80;94.70
24426;DHT22;12611;44.446;26.000;2022-11-20T14:16:28;13.70;94.70
24426;DHT22;12611;44.446;26.000;2022-11-20T14:19:23;13.70;94.80
24426;DHT22;12611;44.446;26.000;2022-11-20T14:22:07;13.70;94.80
24426;DHT22;12611;44.446;26.000;2022-11-20T14:24:37;13.70;94.90
24426;DHT22;12611;44.446;26.000;2022-11-20T14:27:12;13.70;94.90
24426;DHT22;12611;44.446;26.000;2022-11-20T14:29:41;13.70;95.30
24426;DHT22;12611;44.446;26.000;2022-11-20T14:32:11;13.70;95.00
24426;DHT22;12611;44.446;26.000;2022-11-20T14:34:44;13.70;95.10
24426;DHT22;12611;44.446;26.000;2022-11-20T14:37:17;13.70;95.10
24426;DHT22;12611;44.446;26.000;2022-11-20T14:39:51;13.70;95.10
24426;DHT22;12611;44.446;26.000;2022-11-20T14:42:22;13.60;95.20
24426;DHT22;12611;44.446;26.000;2022-11-20T14:44:52;13.60;95.20
24426;DHT22;12611;44.446;26.000;2022-11-20T14:47:24;13.60;95.60
24426;DHT22;12611;44.446;26.000;2022-11-20T14:49:53;13.50;95.50
24426;DHT22;12611;44.446;26.000;2022-11-20T14:52:24;13.50;95.50
24426;DHT22;12611;44.446;26.000;2022-11-20T14:54:55;13.50;95.50
24426;DHT22;12611;44.446;26.000;2022-11-20T14:57:26;13.50;95.50
24426;DHT22;12611;44.446;26.000;2022-11-20T15:00:06;13.50;95.50
24426;DHT22;12611;44.446;26.000;2022-11-20T15:02:39;13.40;95.60
24426;DHT22;12611;44.446;26.000;2022-11-20T15:05:09;13.30;95.80
24426;DHT22;12611;44.446;26.000;2022-11-20T15:07:39;13.30;95.80
24426;DHT22;12611;44.446;26.000;2022-11-20T15:10:13;13.30;95.80
24426;DHT22;12611;44.446;26.000;2022-11-20T15:12:49;13.20;96.30
24426;DHT22;12611;44.446;26.000;2022-11-20T15:15:21;13.20;95.90
24426;DHT22;12611;44.446;26.000;2022-11-20T15:17:51;13.20;96.00
24426;DHT22;12611;44.446;26.000;2022-11-20T15:20:21;13.20;96.00
24426;DHT22;12611;44.446;26.000;2022-11-20T15:22:52;13.20;96.10
24426;DHT22;12611;44.446;26.000;2022-11-20T15:25:21;13.10;96.00
24426;DHT22;12611;44.446;26.000;2022-11-20T15:27:54;13.10;96.10
24426;DHT22;12611;44.446;26.000;2022-11-20T15:30:23;13.10;96.10
24426;DHT22;12611;44.446;26.000;2022-11-20T15:32:51;13.10;96.10
24426;DHT22;12611;44.446;26.000;2022-11-20T15:35:20;13.10;96.20
24426;DHT22;12611;44.446;26.000;2022-11-20T15:37:48;13.10;96.20
24426;DHT22;12611;44.446;26.000;2022-11-20T15:40:16;13.00;96.20
24426;DHT22;12611;44.446;26.000;2022-11-20T15:42:46;13.00;96.30
24426;DHT22;12611;44.446;26.000;2022-11-20T15:45:30;13.00;96.20
24426;DHT22;12611;44.446;26.000;2022-11-20T15:47:59;13.00;96.30
24426;DHT22;12611;44.446;26.000;2022-11-20T15:50:33;13.00;96.30
24426;DHT22;12611;44.446;26.000;2022-11-20T15:53:02;13.00;96.30
24426;DHT22;12611;44.446;26.000;2022-11-20T15:55:32;13.00;96.30
24426;DHT22;12611;44.446;26.000;2022-11-20T15:58:02;13.00;96.30